x

Half Moon Bay - 24nm Ssw Of San Francisco, Ca (46012) Wave Buoy

5:50pm - Sun 28th May 2017 All times are PDT. -7 hours from GMT.

  • Sig Wave height 4.3ft
  • Swell Direction
  • Peak Period 11s
  • Average Period 5s
  • Wind
    20mph, 25mph gusts
  • Sea Temp 55°f
  • Air Temp 55°f
  • Sea Pressure 1017.7mb
  • Half Moon Bay - 24nm Ssw Of San Francisco, Ca
  • Half Moon Bay - 24nm Ssw Of San Francisco, Ca

More Historic Weather Station data

Upgrade to MSW Pro to gain access to the past 30 days of data for over 8000 Wavebouys and Weather Stations around the globe.

Join Pro

Comparision Forecast

View Surf forecast
   
Sun 05/28 5:50pm 4.5ft 11s 5s 20 25 mph 1017.7mb 55f 55f
4:50pm 4.5ft 11s 6s 16 18 mph 1017.9mb 55f 55f
3:50pm 4.5ft 10s 6s 18 20 mph 1018.6mb 55f 55f
2:50pm 4.5ft 14s 6s 16 18 mph 1018.9mb 55f 54f
1:50pm 4.5ft 10s 6s 16 18 mph 1019.3mb 54f 54f
12:50pm 4.5ft 11s 6s 13 18 mph 1019.6mb 54f 54f
11:50am 4ft 12s 6s 11 13 mph 1020mb 54f 54f
10:50am 4.5ft 10s 6s 13 16 mph 1019.6mb 54f 53f
9:50am 4.5ft 11s 6s 13 16 mph 1019.9mb 54f 53f
8:50am 4ft 10s 6s 13 16 mph 1019.7mb 54f 53f
7:50am 4.5ft 10s 6s 11 13 mph 1019.5mb 54f 54f
6:50am 4.5ft 14s 6s 11 16 mph 1019.2mb 54f 54f
5:50am 4.5ft 12s 6s 11 16 mph 1018.8mb 55f 54f
4:50am 4.5ft 11s 6s 13 16 mph 1018.4mb 55f 55f
3:50am 4.5ft 11s 7s 13 16 mph 1018.5mb 55f 55f
2:50am 4ft 13s 7s 13 16 mph 1018.7mb 55f 55f
1:50am 3.5ft 14s 7s 13 16 mph 1019.2mb 55f 55f
12:50am 4ft 9s 7s 9 11 mph 1019.5mb 55f 55f
Sat 05/27 11:50pm 3.5ft 9s 7s 13 16 mph 1019.5mb 55f 55f
10:50pm 4ft 10s 8s 11 13 mph 1019.4mb 55f 56f
9:50pm 4ft 9s 8s 11 16 mph 1019.2mb 55f 55f
8:50pm 4.5ft 10s 8s 9 11 mph 1019mb 56f 55f
7:50pm 4.5ft 9s 8s 11 13 mph 1018.9mb 56f 55f
6:50pm 4ft 10s 8s 11 13 mph 1019.1mb 56f 56f
5:50pm 4.5ft 9s 8s 11 13 mph 1019.4mb 56f 56f
4:50pm 4ft 13s 7s 11 13 mph 1019.5mb 55f 56f
3:50pm 4ft 9s 8s 9 11 mph 1019.5mb 56f 56f
2:50pm 4.5ft 9s 8s 7 9 mph 1019.6mb 56f 56f
1:50pm 4.5ft 9s 8s 7 9 mph 1019.7mb 56f 56f
12:50pm 4.5ft 9s 8s 4 7 mph 1020.1mb 56f 56f
11:50am 4.5ft 10s 8s 2 4 mph 1019.9mb 55f 56f
10:50am 5ft 9s 8s 2 4 mph 1019.9mb 55f 55f
9:50am 5ft 10s 8s 4 4 mph 1019.9mb 55f 55f
8:50am 5ft 10s 8s 4 4 mph 1019.5mb 55f 55f
7:50am 4.5ft 15s 8s 2 4 mph 1018.8mb 55f 55f
6:50am 4.5ft 10s 8s 2 4 mph 1018.4mb 55f 54f
5:50am 4.5ft 10s 7s 2 2 mph 1017.8mb 55f 54f
4:50am 4.5ft 10s 8s 4 7 mph 1017.5mb 55f 54f
3:50am 4.5ft 10s 8s 4 7 mph 1017.3mb 55f 54f
2:50am 4.5ft 15s 8s 4 7 mph 1017.3mb 55f 54f
1:50am 5ft 10s 8s 7 9 mph 1017.2mb 55f 54f
12:50am 4.5ft 10s 8s 4 7 mph 1017.3mb 55f 55f
Fri 05/26 11:50pm 5ft 9s 8s 7 9 mph 1017.3mb 55f 55f
10:50pm 5ft 10s 8s 7 9 mph 1017.3mb 55f 55f
9:50pm 5ft 10s 8s 7 9 mph 1016.8mb 55f 55f
8:50pm 5ft 10s 8s 9 9 mph 1016.6mb 55f 55f
7:50pm 5.5ft 10s 8s 9 9 mph 1016.2mb 55f 55f
6:50pm 5.5ft 10s 8s 7 9 mph 1016.3mb 55f 55f
5:50pm 6ft 10s 8s 7 9 mph 1016.3mb 55f 55f
4:50pm 5.5ft 10s 8s 7 9 mph 1016.1mb 56f 56f
3:50pm 6ft 10s 8s 9 11 mph 1016.2mb 56f 56f
2:50pm 6ft 9s 8s 4 7 mph 1016.1mb 56f 56f
1:50pm 5.5ft 10s 8s 7 9 mph 1016mb 55f 55f
12:50pm 6ft 10s 8s 7 9 mph 1015.7mb 55f 55f
11:50am 6ft 10s 8s 4 7 mph 1015.4mb 55f 55f
10:50am 6ft 10s 8s 4 4 mph 1014.9mb 55f 55f
9:50am 6ft 10s 8s 4 7 mph 1014.5mb 54f 54f
8:50am 5.5ft 10s 8s 4 4 mph 1014mb 54f 54f
7:50am 5ft 10s 7s 2 4 mph 1013.7mb 54f 53f
6:50am 6ft 10s 8s 7 9 mph 1013.1mb 55f 53f
5:50am 5ft 10s 7s 7 9 mph 1012.5mb 54f 53f
4:50am 5.5ft 10s 7s 9 11 mph 1012mb 54f 53f
3:50am 6ft 10s 7s 11 13 mph 1011.7mb 55f 53f
2:50am 6ft 10s 7s 2 7 mph 1011.5mb 55f 55f
1:50am 7ft 10s 8s 4 4 mph 1011.5mb 55f 55f
12:50am 7ft 10s 8s 2 4 mph 1011.2mb 55f 54f
Thu 05/25 11:50pm 7ft 11s 8s 4 7 mph 1011.1mb 55f 55f
10:50pm 7ft 11s 8s 9 11 mph 1010.8mb 55f 55f
9:50pm 6ft 10s 8s 11 13 mph 1010mb 55f 55f
8:50pm 6ft 11s 8s 7 11 mph 1009.6mb 55f 55f
7:50pm 6ft 11s 7s 9 11 mph 1009.3mb 55f 55f
6:50pm 6.5ft 11s 7s 9 11 mph 1009.1mb 54f 55f
5:50pm 7ft 11s 8s 11 13 mph 1008.9mb 54f 55f
4:50pm 7ft 11s 8s 11 16 mph 1008.9mb 54f 55f
3:50pm 7ft 11s 8s 11 16 mph 1009mb 54f 55f
2:50pm 7ft 12s 8s 13 18 mph 1009.2mb 54f 54f
1:50pm 7.5ft 11s 8s 13 16 mph 1009.3mb 54f 54f
12:50pm 7ft 12s 8s 11 13 mph 1009.2mb 54f 54f
11:50am 7ft 10s 8s 9 11 mph 1009mb 54f 53f
10:50am 7ft 11s 8s 4 7 mph 1008.7mb 54f 51f
9:50am 7ft 11s 8s 9 11 mph 1008.6mb 54f 52f
8:50am 7ft 11s 8s 9 11 mph 1008.3mb 54f 52f
7:50am 6.5ft 11s 7s 9 11 mph 1008mb 54f 52f
6:50am 7ft 11s 8s 11 11 mph 1007.5mb 54f 53f
5:50am 7ft 11s 8s 13 16 mph 1007.2mb 54f 53f
4:50am 7ft 11s 8s 11 13 mph 1006.9mb 53f 53f
3:50am 6.5ft 11s 8s 11 13 mph 1006.8mb 53f 54f
2:50am 7ft 12s 8s 11 13 mph 1007mb 53f 53f